sensor_id;sensor_type;location;lat;lon;timestamp;P1;durP1;ratioP1;P2;durP2;ratioP2
17917;SDS011;9084;50.956;3.106;2022-07-29T00:01:35;3.40;;;1.77;;
17917;SDS011;9084;50.956;3.106;2022-07-29T00:04:01;1.98;;;1.48;;
17917;SDS011;9084;50.956;3.106;2022-07-29T00:06:30;2.58;;;1.45;;
17917;SDS011;9084;50.956;3.106;2022-07-29T00:08:55;3.08;;;1.67;;
17917;SDS011;9084;50.956;3.106;2022-07-29T00:11:21;4.40;;;1.83;;
17917;SDS011;9084;50.956;3.106;2022-07-29T00:13:49;3.22;;;1.55;;
17917;SDS011;9084;50.956;3.106;2022-07-29T00:16:15;2.17;;;1.98;;
17917;SDS011;9084;50.956;3.106;2022-07-29T00:18:41;2.20;;;1.50;;
17917;SDS011;9084;50.956;3.106;2022-07-29T00:21:09;4.60;;;1.98;;
17917;SDS011;9084;50.956;3.106;2022-07-29T00:23:35;2.63;;;1.92;;
17917;SDS011;9084;50.956;3.106;2022-07-29T00:26:01;3.38;;;1.52;;
17917;SDS011;9084;50.956;3.106;2022-07-29T00:28:27;3.80;;;1.88;;
17917;SDS011;9084;50.956;3.106;2022-07-29T00:30:52;2.83;;;1.75;;
17917;SDS011;9084;50.956;3.106;2022-07-29T00:33:21;4.45;;;1.85;;
17917;SDS011;9084;50.956;3.106;2022-07-29T00:35:50;1.63;;;1.52;;
17917;SDS011;9084;50.956;3.106;2022-07-29T00:38:17;2.60;;;1.80;;
17917;SDS011;9084;50.956;3.106;2022-07-29T00:40:44;4.97;;;2.00;;
17917;SDS011;9084;50.956;3.106;2022-07-29T00:43:11;2.72;;;1.77;;
17917;SDS011;9084;50.956;3.106;2022-07-29T00:45:38;2.08;;;1.75;;
17917;SDS011;9084;50.956;3.106;2022-07-29T00:48:04;3.75;;;2.00;;
17917;SDS011;9084;50.956;3.106;2022-07-29T00:50:30;5.40;;;2.05;;
17917;SDS011;9084;50.956;3.106;2022-07-29T00:52:59;2.58;;;2.17;;
17917;SDS011;9084;50.956;3.106;2022-07-29T00:55:25;4.70;;;1.92;;
17917;SDS011;9084;50.956;3.106;2022-07-29T00:57:54;4.53;;;1.80;;
17917;SDS011;9084;50.956;3.106;2022-07-29T01:00:22;2.75;;;1.65;;
17917;SDS011;9084;50.956;3.106;2022-07-29T01:02:55;2.22;;;1.55;;
17917;SDS011;9084;50.956;3.106;2022-07-29T01:05:22;2.60;;;1.80;;
17917;SDS011;9084;50.956;3.106;2022-07-29T01:07:51;2.60;;;1.73;;
17917;SDS011;9084;50.956;3.106;2022-07-29T01:10:18;2.97;;;1.98;;
17917;SDS011;9084;50.956;3.106;2022-07-29T01:12:46;3.75;;;1.77;;
17917;SDS011;9084;50.956;3.106;2022-07-29T01:15:14;1.70;;;1.40;;
17917;SDS011;9084;50.956;3.106;2022-07-29T01:18:01;2.33;;;1.83;;
17917;SDS011;9084;50.956;3.106;2022-07-29T01:20:42;2.03;;;1.80;;
17917;SDS011;9084;50.956;3.106;2022-07-29T01:23:58;4.50;;;2.13;;
17917;SDS011;9084;50.956;3.106;2022-07-29T01:26:57;2.55;;;1.80;;
17917;SDS011;9084;50.956;3.106;2022-07-29T01:29:36;2.72;;;1.90;;
17917;SDS011;9084;50.956;3.106;2022-07-29T01:32:10;4.63;;;2.10;;
17917;SDS011;9084;50.956;3.106;2022-07-29T01:39:52;2.45;;;2.25;;
17917;SDS011;9084;50.956;3.106;2022-07-29T01:45:08;6.45;;;2.35;;
17917;SDS011;9084;50.956;3.106;2022-07-29T01:48:03;3.17;;;2.55;;
17917;SDS011;9084;50.956;3.106;2022-07-29T01:50:36;2.90;;;2.50;;
17917;SDS011;9084;50.956;3.106;2022-07-29T01:53:11;5.45;;;2.30;;
17917;SDS011;9084;50.956;3.106;2022-07-29T01:55:44;3.17;;;2.50;;
17917;SDS011;9084;50.956;3.106;2022-07-29T01:58:11;2.70;;;2.20;;
17917;SDS011;9084;50.956;3.106;2022-07-29T02:00:44;2.80;;;2.40;;
17917;SDS011;9084;50.956;3.106;2022-07-29T02:03:12;3.67;;;2.42;;
17917;SDS011;9084;50.956;3.106;2022-07-29T02:05:41;3.22;;;2.70;;
17917;SDS011;9084;50.956;3.106;2022-07-29T02:08:09;3.97;;;3.15;;
17917;SDS011;9084;50.956;3.106;2022-07-29T02:10:41;4.93;;;2.63;;
17917;SDS011;9084;50.956;3.106;2022-07-29T02:13:08;3.40;;;2.55;;
17917;SDS011;9084;50.956;3.106;2022-07-29T02:15:36;2.78;;;2.58;;
17917;SDS011;9084;50.956;3.106;2022-07-29T02:18:05;4.72;;;2.35;;
17917;SDS011;9084;50.956;3.106;2022-07-29T02:20:34;3.72;;;2.53;;
17917;SDS011;9084;50.956;3.106;2022-07-29T02:23:02;4.35;;;2.90;;
17917;SDS011;9084;50.956;3.106;2022-07-29T02:25:29;4.15;;;2.55;;
17917;SDS011;9084;50.956;3.106;2022-07-29T02:27:59;3.63;;;2.22;;
17917;SDS011;9084;50.956;3.106;2022-07-29T02:30:26;4.47;;;2.72;;
17917;SDS011;9084;50.956;3.106;2022-07-29T02:32:55;3.00;;;2.78;;
17917;SDS011;9084;50.956;3.106;2022-07-29T02:35:22;2.95;;;2.75;;
17917;SDS011;9084;50.956;3.106;2022-07-29T02:37:51;2.75;;;2.42;;
17917;SDS011;9084;50.956;3.106;2022-07-29T02:40:37;4.13;;;2.65;;
17917;SDS011;9084;50.956;3.106;2022-07-29T02:43:05;5.07;;;2.55;;
17917;SDS011;9084;50.956;3.106;2022-07-29T02:45:33;4.35;;;2.50;;
17917;SDS011;9084;50.956;3.106;2022-07-29T02:47:59;3.65;;;2.60;;
17917;SDS011;9084;50.956;3.106;2022-07-29T02:50:37;3.70;;;2.58;;
17917;SDS011;9084;50.956;3.106;2022-07-29T02:53:16;2.65;;;2.28;;
17917;SDS011;9084;50.956;3.106;2022-07-29T02:56:01;3.55;;;2.85;;
17917;SDS011;9084;50.956;3.106;2022-07-29T02:58:38;3.30;;;2.60;;
17917;SDS011;9084;50.956;3.106;2022-07-29T03:01:20;3.05;;;2.70;;
17917;SDS011;9084;50.956;3.106;2022-07-29T03:03:51;3.20;;;2.90;;
17917;SDS011;9084;50.956;3.106;2022-07-29T03:06:22;3.25;;;2.63;;
17917;SDS011;9084;50.956;3.106;2022-07-29T03:08:52;2.50;;;2.28;;
17917;SDS011;9084;50.956;3.106;2022-07-29T03:11:19;10.00;;;2.85;;
17917;SDS011;9084;50.956;3.106;2022-07-29T03:13:46;2.55;;;2.30;;
17917;SDS011;9084;50.956;3.106;2022-07-29T03:16:12;4.13;;;2.55;;
17917;SDS011;9084;50.956;3.106;2022-07-29T03:18:39;3.60;;;2.58;;
17917;SDS011;9084;50.956;3.106;2022-07-29T03:21:05;2.85;;;2.63;;
17917;SDS011;9084;50.956;3.106;2022-07-29T03:23:31;4.80;;;2.53;;
17917;SDS011;9084;50.956;3.106;2022-07-29T03:25:58;3.10;;;2.65;;
17917;SDS011;9084;50.956;3.106;2022-07-29T03:28:23;3.63;;;2.63;;
17917;SDS011;9084;50.956;3.106;2022-07-29T03:30:52;3.42;;;2.95;;
17917;SDS011;9084;50.956;3.106;2022-07-29T03:33:18;4.32;;;2.92;;
17917;SDS011;9084;50.956;3.106;2022-07-29T03:35:44;4.22;;;3.08;;
17917;SDS011;9084;50.956;3.106;2022-07-29T03:38:10;2.78;;;2.58;;
17917;SDS011;9084;50.956;3.106;2022-07-29T03:43:17;5.15;;;2.80;;
17917;SDS011;9084;50.956;3.106;2022-07-29T03:45:45;5.75;;;3.10;;
17917;SDS011;9084;50.956;3.106;2022-07-29T03:48:17;3.20;;;2.58;;
17917;SDS011;9084;50.956;3.106;2022-07-29T03:50:46;3.90;;;2.88;;
17917;SDS011;9084;50.956;3.106;2022-07-29T03:53:12;6.60;;;3.30;;
17917;SDS011;9084;50.956;3.106;2022-07-29T03:55:43;3.90;;;2.58;;
17917;SDS011;9084;50.956;3.106;2022-07-29T03:58:14;5.35;;;3.05;;
17917;SDS011;9084;50.956;3.106;2022-07-29T04:00:43;4.00;;;2.70;;
17917;SDS011;9084;50.956;3.106;2022-07-29T04:03:10;3.50;;;2.95;;
17917;SDS011;9084;50.956;3.106;2022-07-29T04:05:37;4.00;;;2.50;;
17917;SDS011;9084;50.956;3.106;2022-07-29T04:08:03;3.95;;;2.85;;
17917;SDS011;9084;50.956;3.106;2022-07-29T04:10:31;3.13;;;2.83;;
17917;SDS011;9084;50.956;3.106;2022-07-29T04:12:58;3.55;;;3.15;;
17917;SDS011;9084;50.956;3.106;2022-07-29T04:15:24;4.72;;;2.97;;
17917;SDS011;9084;50.956;3.106;2022-07-29T04:17:50;3.45;;;2.90;;
17917;SDS011;9084;50.956;3.106;2022-07-29T04:20:18;3.35;;;3.00;;
17917;SDS011;9084;50.956;3.106;2022-07-29T04:22:44;3.47;;;2.95;;
17917;SDS011;9084;50.956;3.106;2022-07-29T04:25:15;3.63;;;3.13;;
17917;SDS011;9084;50.956;3.106;2022-07-29T04:27:41;3.53;;;3.00;;
17917;SDS011;9084;50.956;3.106;2022-07-29T04:30:25;5.78;;;3.30;;
17917;SDS011;9084;50.956;3.106;2022-07-29T04:32:50;5.35;;;3.45;;
17917;SDS011;9084;50.956;3.106;2022-07-29T04:35:16;5.55;;;3.53;;
17917;SDS011;9084;50.956;3.106;2022-07-29T04:37:42;7.82;;;3.40;;
17917;SDS011;9084;50.956;3.106;2022-07-29T04:40:09;3.60;;;3.28;;
17917;SDS011;9084;50.956;3.106;2022-07-29T04:42:37;4.05;;;3.45;;
17917;SDS011;9084;50.956;3.106;2022-07-29T04:45:03;4.38;;;3.25;;
17917;SDS011;9084;50.956;3.106;2022-07-29T04:47:29;4.65;;;3.10;;
17917;SDS011;9084;50.956;3.106;2022-07-29T04:49:56;4.50;;;3.38;;
17917;SDS011;9084;50.956;3.106;2022-07-29T04:52:22;4.35;;;3.05;;
17917;SDS011;9084;50.956;3.106;2022-07-29T04:54:48;3.95;;;3.25;;
17917;SDS011;9084;50.956;3.106;2022-07-29T04:57:16;8.15;;;3.42;;
17917;SDS011;9084;50.956;3.106;2022-07-29T04:59:42;5.88;;;3.50;;
17917;SDS011;9084;50.956;3.106;2022-07-29T05:02:10;4.40;;;3.30;;
17917;SDS011;9084;50.956;3.106;2022-07-29T05:04:35;4.07;;;3.22;;
17917;SDS011;9084;50.956;3.106;2022-07-29T05:07:01;3.38;;;3.05;;
17917;SDS011;9084;50.956;3.106;2022-07-29T05:09:27;3.33;;;2.45;;
17917;SDS011;9084;50.956;3.106;2022-07-29T05:11:53;3.25;;;2.95;;
17917;SDS011;9084;50.956;3.106;2022-07-29T05:14:19;4.72;;;2.97;;
17917;SDS011;9084;50.956;3.106;2022-07-29T05:16:44;4.43;;;2.95;;
17917;SDS011;9084;50.956;3.106;2022-07-29T05:19:13;3.65;;;3.17;;
17917;SDS011;9084;50.956;3.106;2022-07-29T05:21:39;7.60;;;2.85;;
17917;SDS011;9084;50.956;3.106;2022-07-29T05:24:07;3.47;;;2.70;;
17917;SDS011;9084;50.956;3.106;2022-07-29T05:26:33;2.70;;;2.13;;
17917;SDS011;9084;50.956;3.106;2022-07-29T05:29:03;6.40;;;2.58;;
17917;SDS011;9084;50.956;3.106;2022-07-29T05:31:31;5.00;;;3.05;;
17917;SDS011;9084;50.956;3.106;2022-07-29T05:33:57;3.75;;;2.60;;
17917;SDS011;9084;50.956;3.106;2022-07-29T05:36:25;3.13;;;2.78;;
17917;SDS011;9084;50.956;3.106;2022-07-29T05:38:51;4.90;;;2.78;;
17917;SDS011;9084;50.956;3.106;2022-07-29T05:41:17;4.47;;;2.70;;
17917;SDS011;9084;50.956;3.106;2022-07-29T05:43:46;3.15;;;2.45;;
17917;SDS011;9084;50.956;3.106;2022-07-29T05:46:11;3.78;;;2.78;;
17917;SDS011;9084;50.956;3.106;2022-07-29T05:48:41;4.80;;;2.38;;
17917;SDS011;9084;50.956;3.106;2022-07-29T05:51:07;3.75;;;2.38;;
17917;SDS011;9084;50.956;3.106;2022-07-29T05:53:32;4.97;;;2.95;;
17917;SDS011;9084;50.956;3.106;2022-07-29T05:56:02;4.90;;;2.72;;
17917;SDS011;9084;50.956;3.106;2022-07-29T05:58:29;6.43;;;2.65;;
17917;SDS011;9084;50.956;3.106;2022-07-29T06:00:55;3.03;;;2.80;;
17917;SDS011;9084;50.956;3.106;2022-07-29T06:03:24;6.45;;;2.83;;
17917;SDS011;9084;50.956;3.106;2022-07-29T06:05:50;3.00;;;2.60;;
17917;SDS011;9084;50.956;3.106;2022-07-29T06:08:19;3.45;;;2.70;;
17917;SDS011;9084;50.956;3.106;2022-07-29T06:10:45;3.70;;;2.80;;
17917;SDS011;9084;50.956;3.106;2022-07-29T06:13:10;4.10;;;2.83;;
17917;SDS011;9084;50.956;3.106;2022-07-29T06:15:36;5.07;;;2.67;;
17917;SDS011;9084;50.956;3.106;2022-07-29T06:18:05;5.43;;;2.88;;
17917;SDS011;9084;50.956;3.106;2022-07-29T06:20:34;3.25;;;2.90;;
17917;SDS011;9084;50.956;3.106;2022-07-29T06:23:00;4.20;;;2.63;;
17917;SDS011;9084;50.956;3.106;2022-07-29T06:25:29;6.45;;;2.92;;
17917;SDS011;9084;50.956;3.106;2022-07-29T06:27:56;3.70;;;3.00;;
17917;SDS011;9084;50.956;3.106;2022-07-29T06:30:23;6.32;;;3.35;;
17917;SDS011;9084;50.956;3.106;2022-07-29T06:32:51;4.63;;;2.92;;
17917;SDS011;9084;50.956;3.106;2022-07-29T06:35:17;3.42;;;2.88;;
17917;SDS011;9084;50.956;3.106;2022-07-29T06:37:43;4.75;;;2.75;;
17917;SDS011;9084;50.956;3.106;2022-07-29T06:40:11;5.95;;;2.95;;
17917;SDS011;9084;50.956;3.106;2022-07-29T06:42:58;3.03;;;2.72;;
17917;SDS011;9084;50.956;3.106;2022-07-29T06:45:24;5.60;;;2.92;;
17917;SDS011;9084;50.956;3.106;2022-07-29T06:47:57;6.30;;;2.97;;
17917;SDS011;9084;50.956;3.106;2022-07-29T06:50:23;3.00;;;2.70;;
17917;SDS011;9084;50.956;3.106;2022-07-29T06:52:48;4.45;;;3.00;;
17917;SDS011;9084;50.956;3.106;2022-07-29T06:55:14;5.50;;;3.20;;
17917;SDS011;9084;50.956;3.106;2022-07-29T06:57:40;4.28;;;2.90;;
17917;SDS011;9084;50.956;3.106;2022-07-29T07:00:06;3.25;;;2.75;;
17917;SDS011;9084;50.956;3.106;2022-07-29T07:02:32;9.07;;;3.63;;
17917;SDS011;9084;50.956;3.106;2022-07-29T07:04:58;3.47;;;3.10;;
17917;SDS011;9084;50.956;3.106;2022-07-29T07:07:25;3.38;;;3.03;;
17917;SDS011;9084;50.956;3.106;2022-07-29T07:09:51;3.05;;;2.75;;
17917;SDS011;9084;50.956;3.106;2022-07-29T07:12:17;4.60;;;3.00;;
17917;SDS011;9084;50.956;3.106;2022-07-29T07:14:43;3.55;;;3.00;;
17917;SDS011;9084;50.956;3.106;2022-07-29T07:17:13;2.88;;;2.53;;
17917;SDS011;9084;50.956;3.106;2022-07-29T07:19:39;3.70;;;2.80;;
17917;SDS011;9084;50.956;3.106;2022-07-29T07:22:04;3.90;;;3.50;;
17917;SDS011;9084;50.956;3.106;2022-07-29T07:24:32;4.13;;;3.03;;
17917;SDS011;9084;50.956;3.106;2022-07-29T07:26:58;6.93;;;3.00;;
17917;SDS011;9084;50.956;3.106;2022-07-29T07:29:26;3.03;;;2.80;;
17917;SDS011;9084;50.956;3.106;2022-07-29T07:31:51;3.53;;;2.95;;
17917;SDS011;9084;50.956;3.106;2022-07-29T07:34:18;4.88;;;2.95;;
17917;SDS011;9084;50.956;3.106;2022-07-29T07:36:43;4.13;;;2.72;;
17917;SDS011;9084;50.956;3.106;2022-07-29T07:39:09;3.75;;;2.90;;
17917;SDS011;9084;50.956;3.106;2022-07-29T07:41:40;4.47;;;2.58;;
17917;SDS011;9084;50.956;3.106;2022-07-29T07:44:06;4.30;;;3.05;;
17917;SDS011;9084;50.956;3.106;2022-07-29T07:46:32;5.38;;;3.38;;
17917;SDS011;9084;50.956;3.106;2022-07-29T07:49:00;3.42;;;2.83;;
17917;SDS011;9084;50.956;3.106;2022-07-29T07:51:29;5.25;;;3.05;;
17917;SDS011;9084;50.956;3.106;2022-07-29T07:53:57;4.60;;;2.80;;
17917;SDS011;9084;50.956;3.106;2022-07-29T07:56:23;7.63;;;3.33;;
17917;SDS011;9084;50.956;3.106;2022-07-29T07:58:51;5.10;;;2.83;;
17917;SDS011;9084;50.956;3.106;2022-07-29T08:01:17;3.78;;;2.80;;
17917;SDS011;9084;50.956;3.106;2022-07-29T08:03:48;4.32;;;3.03;;
17917;SDS011;9084;50.956;3.106;2022-07-29T08:06:14;5.03;;;2.67;;
17917;SDS011;9084;50.956;3.106;2022-07-29T08:08:41;3.90;;;2.83;;
17917;SDS011;9084;50.956;3.106;2022-07-29T08:11:09;3.45;;;2.60;;
17917;SDS011;9084;50.956;3.106;2022-07-29T08:13:37;4.20;;;2.80;;
17917;SDS011;9084;50.956;3.106;2022-07-29T08:16:04;3.40;;;2.33;;
17917;SDS011;9084;50.956;3.106;2022-07-29T08:18:36;4.88;;;3.03;;
17917;SDS011;9084;50.956;3.106;2022-07-29T08:21:03;3.58;;;2.20;;
17917;SDS011;9084;50.956;3.106;2022-07-29T08:23:29;7.05;;;2.50;;
17917;SDS011;9084;50.956;3.106;2022-07-29T08:26:07;5.18;;;2.70;;
17917;SDS011;9084;50.956;3.106;2022-07-29T08:28:38;3.28;;;2.67;;
17917;SDS011;9084;50.956;3.106;2022-07-29T08:31:07;2.75;;;2.55;;
17917;SDS011;9084;50.956;3.106;2022-07-29T08:33:33;7.00;;;2.80;;
17917;SDS011;9084;50.956;3.106;2022-07-29T08:36:01;4.80;;;2.47;;
17917;SDS011;9084;50.956;3.106;2022-07-29T08:38:27;6.18;;;2.50;;
17917;SDS011;9084;50.956;3.106;2022-07-29T08:40:53;5.45;;;2.80;;
17917;SDS011;9084;50.956;3.106;2022-07-29T08:43:19;3.95;;;2.28;;
17917;SDS011;9084;50.956;3.106;2022-07-29T08:45:49;2.80;;;2.30;;
17917;SDS011;9084;50.956;3.106;2022-07-29T08:48:20;4.57;;;2.97;;
17917;SDS011;9084;50.956;3.106;2022-07-29T08:50:52;4.82;;;2.83;;
17917;SDS011;9084;50.956;3.106;2022-07-29T08:53:20;4.05;;;2.65;;
17917;SDS011;9084;50.956;3.106;2022-07-29T08:55:51;3.85;;;2.75;;
17917;SDS011;9084;50.956;3.106;2022-07-29T08:58:18;2.63;;;2.42;;
17917;SDS011;9084;50.956;3.106;2022-07-29T09:00:45;2.53;;;2.33;;
17917;SDS011;9084;50.956;3.106;2022-07-29T09:03:18;5.45;;;2.58;;
17917;SDS011;9084;50.956;3.106;2022-07-29T09:05:49;3.13;;;2.35;;
17917;SDS011;9084;50.956;3.106;2022-07-29T09:08:16;3.42;;;2.08;;
17917;SDS011;9084;50.956;3.106;2022-07-29T09:10:43;4.82;;;2.97;;
17917;SDS011;9084;50.956;3.106;2022-07-29T09:13:12;5.57;;;2.28;;
17917;SDS011;9084;50.956;3.106;2022-07-29T09:15:43;3.53;;;2.00;;
17917;SDS011;9084;50.956;3.106;2022-07-29T09:18:09;3.22;;;2.30;;
17917;SDS011;9084;50.956;3.106;2022-07-29T09:20:37;4.82;;;2.38;;
17917;SDS011;9084;50.956;3.106;2022-07-29T09:23:22;2.72;;;1.70;;
17917;SDS011;9084;50.956;3.106;2022-07-29T09:25:51;3.58;;;1.70;;
17917;SDS011;9084;50.956;3.106;2022-07-29T09:28:16;2.67;;;1.45;;
17917;SDS011;9084;50.956;3.106;2022-07-29T09:30:58;4.75;;;1.88;;
17917;SDS011;9084;50.956;3.106;2022-07-29T09:33:33;4.68;;;2.17;;
17917;SDS011;9084;50.956;3.106;2022-07-29T09:38:33;2.78;;;1.98;;
17917;SDS011;9084;50.956;3.106;2022-07-29T09:41:04;2.42;;;2.22;;
17917;SDS011;9084;50.956;3.106;2022-07-29T09:43:32;3.42;;;2.08;;
17917;SDS011;9084;50.956;3.106;2022-07-29T09:46:11;2.65;;;1.70;;
17917;SDS011;9084;50.956;3.106;2022-07-29T09:48:38;3.90;;;2.25;;
17917;SDS011;9084;50.956;3.106;2022-07-29T09:51:17;4.07;;;2.42;;
17917;SDS011;9084;50.956;3.106;2022-07-29T09:53:45;4.82;;;2.15;;
17917;SDS011;9084;50.956;3.106;2022-07-29T09:56:14;2.47;;;1.90;;
17917;SDS011;9084;50.956;3.106;2022-07-29T09:58:42;3.25;;;1.95;;
17917;SDS011;9084;50.956;3.106;2022-07-29T10:01:10;2.78;;;2.05;;
17917;SDS011;9084;50.956;3.106;2022-07-29T10:03:50;2.20;;;1.50;;
17917;SDS011;9084;50.956;3.106;2022-07-29T10:06:18;3.97;;;2.00;;
17917;SDS011;9084;50.956;3.106;2022-07-29T10:08:44;4.07;;;2.30;;
17917;SDS011;9084;50.956;3.106;2022-07-29T10:11:11;2.85;;;1.67;;
17917;SDS011;9084;50.956;3.106;2022-07-29T10:13:42;3.05;;;1.88;;
17917;SDS011;9084;50.956;3.106;2022-07-29T10:16:09;3.45;;;2.20;;
17917;SDS011;9084;50.956;3.106;2022-07-29T10:18:40;3.45;;;2.33;;
17917;SDS011;9084;50.956;3.106;2022-07-29T10:21:07;9.07;;;2.55;;
17917;SDS011;9084;50.956;3.106;2022-07-29T10:23:36;4.47;;;1.95;;
17917;SDS011;9084;50.956;3.106;2022-07-29T10:26:05;3.67;;;1.90;;
17917;SDS011;9084;50.956;3.106;2022-07-29T10:28:31;6.03;;;1.50;;
17917;SDS011;9084;50.956;3.106;2022-07-29T10:30:59;3.20;;;2.33;;
17917;SDS011;9084;50.956;3.106;2022-07-29T10:33:35;5.80;;;2.10;;
17917;SDS011;9084;50.956;3.106;2022-07-29T10:38:42;3.13;;;1.95;;
17917;SDS011;9084;50.956;3.106;2022-07-29T10:46:37;2.00;;;1.45;;
17917;SDS011;9084;50.956;3.106;2022-07-29T10:57:14;3.97;;;1.88;;
17917;SDS011;9084;50.956;3.106;2022-07-29T10:59:45;5.88;;;1.88;;
17917;SDS011;9084;50.956;3.106;2022-07-29T11:07:37;5.38;;;1.50;;
17917;SDS011;9084;50.956;3.106;2022-07-29T11:15:09;3.55;;;1.75;;
17917;SDS011;9084;50.956;3.106;2022-07-29T11:18:02;3.90;;;1.77;;
17917;SDS011;9084;50.956;3.106;2022-07-29T11:34:22;2.95;;;1.67;;
17917;SDS011;9084;50.956;3.106;2022-07-29T11:39:42;3.25;;;1.70;;
17917;SDS011;9084;50.956;3.106;2022-07-29T11:44:57;4.72;;;1.25;;
17917;SDS011;9084;50.956;3.106;2022-07-29T11:47:30;3.60;;;1.55;;
17917;SDS011;9084;50.956;3.106;2022-07-29T11:49:57;2.50;;;1.90;;
17917;SDS011;9084;50.956;3.106;2022-07-29T11:52:35;3.70;;;1.75;;
17917;SDS011;9084;50.956;3.106;2022-07-29T11:55:11;4.47;;;2.15;;
17917;SDS011;9084;50.956;3.106;2022-07-29T11:58:02;5.43;;;2.00;;
17917;SDS011;9084;50.956;3.106;2022-07-29T12:00:29;5.45;;;1.92;;
17917;SDS011;9084;50.956;3.106;2022-07-29T12:03:00;5.35;;;2.30;;
17917;SDS011;9084;50.956;3.106;2022-07-29T12:05:32;3.28;;;1.65;;
17917;SDS011;9084;50.956;3.106;2022-07-29T12:08:07;3.40;;;1.92;;
17917;SDS011;9084;50.956;3.106;2022-07-29T12:10:41;5.88;;;1.70;;
17917;SDS011;9084;50.956;3.106;2022-07-29T12:13:08;5.13;;;1.80;;
17917;SDS011;9084;50.956;3.106;2022-07-29T12:15:35;2.75;;;1.73;;
17917;SDS011;9084;50.956;3.106;2022-07-29T12:18:11;2.75;;;1.30;;
17917;SDS011;9084;50.956;3.106;2022-07-29T12:20:42;3.78;;;1.60;;
17917;SDS011;9084;50.956;3.106;2022-07-29T12:23:11;5.70;;;1.80;;
17917;SDS011;9084;50.956;3.106;2022-07-29T12:25:38;6.00;;;1.85;;
17917;SDS011;9084;50.956;3.106;2022-07-29T12:28:09;2.72;;;1.45;;
17917;SDS011;9084;50.956;3.106;2022-07-29T12:33:15;2.42;;;1.55;;
17917;SDS011;9084;50.956;3.106;2022-07-29T12:35:45;3.80;;;1.80;;
17917;SDS011;9084;50.956;3.106;2022-07-29T12:38:13;2.90;;;1.70;;
17917;SDS011;9084;50.956;3.106;2022-07-29T12:40:40;3.97;;;2.20;;
17917;SDS011;9084;50.956;3.106;2022-07-29T12:43:12;5.15;;;2.53;;
17917;SDS011;9084;50.956;3.106;2022-07-29T12:45:39;4.38;;;2.20;;
17917;SDS011;9084;50.956;3.106;2022-07-29T12:48:07;3.55;;;2.08;;
17917;SDS011;9084;50.956;3.106;2022-07-29T12:50:37;3.05;;;1.85;;
17917;SDS011;9084;50.956;3.106;2022-07-29T12:53:24;2.35;;;2.10;;
17917;SDS011;9084;50.956;3.106;2022-07-29T12:55:51;2.92;;;2.03;;
17917;SDS011;9084;50.956;3.106;2022-07-29T12:58:26;3.13;;;1.70;;
17917;SDS011;9084;50.956;3.106;2022-07-29T13:03:43;3.25;;;1.40;;
17917;SDS011;9084;50.956;3.106;2022-07-29T13:09:03;4.80;;;2.05;;
17917;SDS011;9084;50.956;3.106;2022-07-29T13:11:35;4.00;;;2.25;;
17917;SDS011;9084;50.956;3.106;2022-07-29T13:14:04;2.72;;;1.92;;
17917;SDS011;9084;50.956;3.106;2022-07-29T13:16:36;2.85;;;2.03;;
17917;SDS011;9084;50.956;3.106;2022-07-29T13:19:31;2.95;;;1.70;;
17917;SDS011;9084;50.956;3.106;2022-07-29T13:21:58;3.25;;;2.08;;
17917;SDS011;9084;50.956;3.106;2022-07-29T13:24:26;4.60;;;2.40;;
17917;SDS011;9084;50.956;3.106;2022-07-29T13:26:52;5.78;;;1.70;;
17917;SDS011;9084;50.956;3.106;2022-07-29T13:29:18;3.90;;;1.98;;
17917;SDS011;9084;50.956;3.106;2022-07-29T13:31:44;6.40;;;2.17;;
17917;SDS011;9084;50.956;3.106;2022-07-29T13:34:09;5.05;;;2.47;;
17917;SDS011;9084;50.956;3.106;2022-07-29T13:36:35;2.67;;;1.77;;
17917;SDS011;9084;50.956;3.106;2022-07-29T13:39:08;9.80;;;1.90;;
17917;SDS011;9084;50.956;3.106;2022-07-29T13:41:37;3.83;;;2.08;;
17917;SDS011;9084;50.956;3.106;2022-07-29T13:44:05;3.08;;;1.90;;
17917;SDS011;9084;50.956;3.106;2022-07-29T13:46:31;4.40;;;2.28;;
17917;SDS011;9084;50.956;3.106;2022-07-29T13:48:59;4.03;;;2.50;;
17917;SDS011;9084;50.956;3.106;2022-07-29T13:51:25;2.97;;;1.98;;
17917;SDS011;9084;50.956;3.106;2022-07-29T13:53:53;3.22;;;2.13;;
17917;SDS011;9084;50.956;3.106;2022-07-29T13:56:19;4.50;;;1.90;;
17917;SDS011;9084;50.956;3.106;2022-07-29T13:58:47;5.57;;;2.00;;
17917;SDS011;9084;50.956;3.106;2022-07-29T14:01:12;5.43;;;1.80;;
17917;SDS011;9084;50.956;3.106;2022-07-29T14:03:38;6.47;;;2.00;;
17917;SDS011;9084;50.956;3.106;2022-07-29T14:06:06;3.78;;;1.73;;
17917;SDS011;9084;50.956;3.106;2022-07-29T14:08:32;4.55;;;1.88;;
17917;SDS011;9084;50.956;3.106;2022-07-29T14:10:59;4.07;;;1.58;;
17917;SDS011;9084;50.956;3.106;2022-07-29T14:13:25;5.55;;;2.17;;
17917;SDS011;9084;50.956;3.106;2022-07-29T14:15:51;7.22;;;2.00;;
17917;SDS011;9084;50.956;3.106;2022-07-29T14:18:18;5.05;;;1.83;;
17917;SDS011;9084;50.956;3.106;2022-07-29T14:20:45;3.63;;;1.40;;
17917;SDS011;9084;50.956;3.106;2022-07-29T14:23:13;6.60;;;2.08;;
17917;SDS011;9084;50.956;3.106;2022-07-29T14:25:39;4.20;;;1.85;;
17917;SDS011;9084;50.956;3.106;2022-07-29T14:28:04;4.97;;;1.90;;
17917;SDS011;9084;50.956;3.106;2022-07-29T14:30:30;6.35;;;1.88;;
17917;SDS011;9084;50.956;3.106;2022-07-29T14:32:56;7.70;;;2.20;;
17917;SDS011;9084;50.956;3.106;2022-07-29T14:35:22;4.47;;;1.95;;
17917;SDS011;9084;50.956;3.106;2022-07-29T14:37:47;4.55;;;1.80;;
17917;SDS011;9084;50.956;3.106;2022-07-29T14:40:14;4.07;;;1.90;;
17917;SDS011;9084;50.956;3.106;2022-07-29T14:42:40;4.32;;;1.75;;
17917;SDS011;9084;50.956;3.106;2022-07-29T14:45:07;4.97;;;1.77;;
17917;SDS011;9084;50.956;3.106;2022-07-29T14:47:34;5.65;;;1.73;;
17917;SDS011;9084;50.956;3.106;2022-07-29T14:49:59;6.18;;;1.73;;
17917;SDS011;9084;50.956;3.106;2022-07-29T14:52:26;3.08;;;1.67;;
17917;SDS011;9084;50.956;3.106;2022-07-29T14:54:51;2.83;;;1.55;;
17917;SDS011;9084;50.956;3.106;2022-07-29T14:57:17;3.38;;;1.58;;
17917;SDS011;9084;50.956;3.106;2022-07-29T14:59:43;4.90;;;1.98;;
17917;SDS011;9084;50.956;3.106;2022-07-29T15:02:12;5.38;;;1.98;;
17917;SDS011;9084;50.956;3.106;2022-07-29T15:04:37;2.85;;;1.85;;
17917;SDS011;9084;50.956;3.106;2022-07-29T15:07:03;2.60;;;1.80;;
17917;SDS011;9084;50.956;3.106;2022-07-29T15:09:29;1.67;;;1.30;;
17917;SDS011;9084;50.956;3.106;2022-07-29T15:11:55;2.70;;;1.42;;
17917;SDS011;9084;50.956;3.106;2022-07-29T15:14:21;4.30;;;1.65;;
17917;SDS011;9084;50.956;3.106;2022-07-29T15:16:47;4.30;;;2.10;;
17917;SDS011;9084;50.956;3.106;2022-07-29T15:19:13;4.93;;;1.40;;
17917;SDS011;9084;50.956;3.106;2022-07-29T15:21:39;3.72;;;1.45;;
17917;SDS011;9084;50.956;3.106;2022-07-29T15:24:06;1.95;;;1.50;;
17917;SDS011;9084;50.956;3.106;2022-07-29T15:26:32;5.28;;;2.10;;
17917;SDS011;9084;50.956;3.106;2022-07-29T15:28:58;4.47;;;2.30;;
17917;SDS011;9084;50.956;3.106;2022-07-29T15:31:28;2.13;;;1.75;;
17917;SDS011;9084;50.956;3.106;2022-07-29T15:33:56;3.70;;;1.92;;
17917;SDS011;9084;50.956;3.106;2022-07-29T15:36:24;6.55;;;2.03;;
17917;SDS011;9084;50.956;3.106;2022-07-29T15:38:53;3.22;;;1.40;;
17917;SDS011;9084;50.956;3.106;2022-07-29T15:41:19;8.20;;;1.77;;
17917;SDS011;9084;50.956;3.106;2022-07-29T15:43:48;5.70;;;1.65;;
17917;SDS011;9084;50.956;3.106;2022-07-29T15:46:14;2.83;;;1.50;;
17917;SDS011;9084;50.956;3.106;2022-07-29T15:48:59;1.60;;;1.27;;
17917;SDS011;9084;50.956;3.106;2022-07-29T15:51:29;4.30;;;1.70;;
17917;SDS011;9084;50.956;3.106;2022-07-29T15:53:55;2.10;;;1.80;;
17917;SDS011;9084;50.956;3.106;2022-07-29T15:56:21;4.65;;;1.83;;
17917;SDS011;9084;50.956;3.106;2022-07-29T15:58:47;2.60;;;1.50;;
17917;SDS011;9084;50.956;3.106;2022-07-29T16:01:15;2.70;;;1.38;;
17917;SDS011;9084;50.956;3.106;2022-07-29T16:03:41;3.45;;;1.40;;
17917;SDS011;9084;50.956;3.106;2022-07-29T16:06:07;3.83;;;1.63;;
17917;SDS011;9084;50.956;3.106;2022-07-29T16:08:37;2.20;;;1.45;;
17917;SDS011;9084;50.956;3.106;2022-07-29T16:11:03;2.20;;;1.30;;
17917;SDS011;9084;50.956;3.106;2022-07-29T16:13:31;2.40;;;1.10;;
17917;SDS011;9084;50.956;3.106;2022-07-29T16:15:57;4.97;;;1.48;;
17917;SDS011;9084;50.956;3.106;2022-07-29T16:18:22;3.85;;;1.77;;